sensor_id;sensor_type;location;lat;lon;timestamp;pressure;altitude;pressure_sealevel;temperature;humidity
34235;BME280;20500;49.856;20.290;2022-10-10T00:00:17;99978.48;;;3.13;69.73
34235;BME280;20500;49.856;20.290;2022-10-10T00:03:21;99979.93;;;3.11;69.83
34235;BME280;20500;49.856;20.290;2022-10-10T00:06:28;99976.87;;;3.09;69.98
34235;BME280;20500;49.856;20.290;2022-10-10T00:09:37;99973.52;;;3.05;69.93
34235;BME280;20500;49.856;20.290;2022-10-10T00:12:43;99970.17;;;3.04;69.94
34235;BME280;20500;49.856;20.290;2022-10-10T00:15:48;99963.82;;;3.03;70.03
34235;BME280;20500;49.856;20.290;2022-10-10T00:18:54;99960.76;;;2.98;70.16
34235;BME280;20500;49.856;20.290;2022-10-10T00:22:00;99959.88;;;2.88;70.18
34235;BME280;20500;49.856;20.290;2022-10-10T00:25:09;99959.33;;;2.86;70.37
34235;BME280;20500;49.856;20.290;2022-10-10T00:28:15;99953.79;;;2.88;70.35
34235;BME280;20500;49.856;20.290;2022-10-10T00:31:22;99953.50;;;2.89;70.21
34235;BME280;20500;49.856;20.290;2022-10-10T00:34:28;99948.88;;;2.91;70.44
34235;BME280;20500;49.856;20.290;2022-10-10T00:37:34;99954.95;;;2.95;70.40
34235;BME280;20500;49.856;20.290;2022-10-10T00:40:47;99952.33;;;2.96;70.54
34235;BME280;20500;49.856;20.290;2022-10-10T00:44:04;99950.27;;;2.97;70.42
34235;BME280;20500;49.856;20.290;2022-10-10T00:47:11;99946.77;;;2.99;70.46
34235;BME280;20500;49.856;20.290;2022-10-10T00:50:15;99941.46;;;2.97;70.62
34235;BME280;20500;49.856;20.290;2022-10-10T00:53:24;99943.54;;;2.96;70.59
34235;BME280;20500;49.856;20.290;2022-10-10T00:56:34;99937.18;;;2.92;70.57
34235;BME280;20500;49.856;20.290;2022-10-10T00:59:43;99940.13;;;2.88;70.48
34235;BME280;20500;49.856;20.290;2022-10-10T01:02:51;99939.59;;;2.81;70.48
34235;BME280;20500;49.856;20.290;2022-10-10T01:05:57;99930.99;;;2.69;70.30
34235;BME280;20500;49.856;20.290;2022-10-10T01:09:04;99925.64;;;2.59;70.46
34235;BME280;20500;49.856;20.290;2022-10-10T01:12:19;99927.30;;;2.53;70.61
34235;BME280;20500;49.856;20.290;2022-10-10T01:15:35;99922.81;;;2.51;70.62
34235;BME280;20500;49.856;20.290;2022-10-10T01:18:46;99922.50;;;2.45;70.75
34235;BME280;20500;49.856;20.290;2022-10-10T01:21:58;99920.65;;;2.41;70.89
34235;BME280;20500;49.856;20.290;2022-10-10T01:25:18;99920.27;;;2.36;70.92
34235;BME280;20500;49.856;20.290;2022-10-10T01:28:32;99916.75;;;2.33;70.80
34235;BME280;20500;49.856;20.290;2022-10-10T01:31:45;99914.73;;;2.31;70.89
34235;BME280;20500;49.856;20.290;2022-10-10T01:35:02;99908.40;;;2.24;70.91
34235;BME280;20500;49.856;20.290;2022-10-10T01:38:18;99906.38;;;2.20;70.93
34235;BME280;20500;49.856;20.290;2022-10-10T01:41:29;99907.41;;;2.17;70.89
34235;BME280;20500;49.856;20.290;2022-10-10T01:44:37;99904.85;;;2.16;71.02
34235;BME280;20500;49.856;20.290;2022-10-10T01:47:43;99899.42;;;2.14;70.89
34235;BME280;20500;49.856;20.290;2022-10-10T01:51:07;99897.80;;;2.12;70.98
34235;BME280;20500;49.856;20.290;2022-10-10T01:54:28;99894.98;;;2.11;70.94
34235;BME280;20500;49.856;20.290;2022-10-10T01:57:43;99897.46;;;2.09;71.06
34235;BME280;20500;49.856;20.290;2022-10-10T02:00:53;99900.80;;;2.08;71.16
34235;BME280;20500;49.856;20.290;2022-10-10T02:04:11;99899.32;;;2.06;71.13
34235;BME280;20500;49.856;20.290;2022-10-10T02:07:23;99895.05;;;2.01;71.15
34235;BME280;20500;49.856;20.290;2022-10-10T02:10:34;99890.53;;;1.95;71.26
34235;BME280;20500;49.856;20.290;2022-10-10T02:13:44;99887.23;;;1.94;71.24
34235;BME280;20500;49.856;20.290;2022-10-10T02:16:55;99881.36;;;1.93;71.29
34235;BME280;20500;49.856;20.290;2022-10-10T02:20:02;99877.84;;;1.90;71.12
34235;BME280;20500;49.856;20.290;2022-10-10T02:23:13;99882.14;;;1.83;71.19
34235;BME280;20500;49.856;20.290;2022-10-10T02:26:22;99880.05;;;1.79;71.34
34235;BME280;20500;49.856;20.290;2022-10-10T02:29:31;99879.12;;;1.77;71.38
34235;BME280;20500;49.856;20.290;2022-10-10T02:32:40;99869.61;;;1.75;71.39
34235;BME280;20500;49.856;20.290;2022-10-10T02:35:48;99867.11;;;1.69;71.44
34235;BME280;20500;49.856;20.290;2022-10-10T02:38:56;99863.42;;;1.61;71.43
34235;BME280;20500;49.856;20.290;2022-10-10T02:42:03;99860.98;;;1.57;71.70
34235;BME280;20500;49.856;20.290;2022-10-10T02:45:11;99858.52;;;1.57;71.73
34235;BME280;20500;49.856;20.290;2022-10-10T02:48:17;99864.86;;;1.48;71.81
34235;BME280;20500;49.856;20.290;2022-10-10T02:51:23;99861.91;;;1.46;71.89
34235;BME280;20500;49.856;20.290;2022-10-10T02:54:34;99863.14;;;1.47;71.89
34235;BME280;20500;49.856;20.290;2022-10-10T02:57:40;99873.92;;;1.49;71.92
34235;BME280;20500;49.856;20.290;2022-10-10T03:00:46;99872.70;;;1.51;71.89
34235;BME280;20500;49.856;20.290;2022-10-10T03:03:52;99867.27;;;1.52;72.01
34235;BME280;20500;49.856;20.290;2022-10-10T03:06:58;99866.02;;;1.54;71.92
34235;BME280;20500;49.856;20.290;2022-10-10T03:10:05;99863.59;;;1.53;71.85
34235;BME280;20500;49.856;20.290;2022-10-10T03:13:12;99855.46;;;1.49;71.67
34235;BME280;20500;49.856;20.290;2022-10-10T03:16:18;99855.96;;;1.42;71.84
34235;BME280;20500;49.856;20.290;2022-10-10T03:19:24;99855.55;;;1.40;71.78
34235;BME280;20500;49.856;20.290;2022-10-10T03:22:29;99849.20;;;1.39;72.04
34235;BME280;20500;49.856;20.290;2022-10-10T03:25:37;99842.63;;;1.38;72.10
34235;BME280;20500;49.856;20.290;2022-10-10T03:28:44;99838.23;;;1.39;72.23
34235;BME280;20500;49.856;20.290;2022-10-10T03:31:51;99842.16;;;1.40;72.16
34235;BME280;20500;49.856;20.290;2022-10-10T03:34:57;99839.94;;;1.36;72.04
34235;BME280;20500;49.856;20.290;2022-10-10T03:38:03;99830.88;;;1.32;71.91
34235;BME280;20500;49.856;20.290;2022-10-10T03:41:09;99826.23;;;1.29;72.15
34235;BME280;20500;49.856;20.290;2022-10-10T03:44:16;99823.22;;;1.24;72.32
34235;BME280;20500;49.856;20.290;2022-10-10T03:47:20;99821.91;;;1.22;72.29
34235;BME280;20500;49.856;20.290;2022-10-10T03:50:27;99821.95;;;1.24;72.48
34235;BME280;20500;49.856;20.290;2022-10-10T03:53:33;99820.77;;;1.26;72.52
34235;BME280;20500;49.856;20.290;2022-10-10T03:56:39;99819.55;;;1.25;72.36
34235;BME280;20500;49.856;20.290;2022-10-10T03:59:45;99818.03;;;1.24;72.46
34235;BME280;20500;49.856;20.290;2022-10-10T04:02:51;99816.52;;;1.22;72.45
34235;BME280;20500;49.856;20.290;2022-10-10T04:05:58;99812.50;;;1.24;72.59
34235;BME280;20500;49.856;20.290;2022-10-10T04:09:04;99816.00;;;1.22;72.54
34235;BME280;20500;49.856;20.290;2022-10-10T04:12:08;99812.64;;;1.22;72.70
34235;BME280;20500;49.856;20.290;2022-10-10T04:15:15;99809.67;;;1.23;72.85
34235;BME280;20500;49.856;20.290;2022-10-10T04:18:22;99805.37;;;1.24;72.75
34235;BME280;20500;49.856;20.290;2022-10-10T04:21:29;99811.27;;;1.21;72.74
34235;BME280;20500;49.856;20.290;2022-10-10T04:24:35;99811.02;;;1.19;72.79
34235;BME280;20500;49.856;20.290;2022-10-10T04:27:41;99812.53;;;1.18;72.63
34235;BME280;20500;49.856;20.290;2022-10-10T04:30:48;99810.39;;;1.15;72.57
34235;BME280;20500;49.856;20.290;2022-10-10T04:33:54;99806.80;;;1.10;72.59
34235;BME280;20500;49.856;20.290;2022-10-10T04:37:00;99803.81;;;1.07;72.73
34235;BME280;20500;49.856;20.290;2022-10-10T04:40:08;99798.73;;;1.03;72.74
34235;BME280;20500;49.856;20.290;2022-10-10T04:43:15;99799.13;;;1.00;72.80
34235;BME280;20500;49.856;20.290;2022-10-10T04:46:19;99806.41;;;0.97;72.72
34235;BME280;20500;49.856;20.290;2022-10-10T04:49:26;99804.01;;;0.96;72.79
34235;BME280;20500;49.856;20.290;2022-10-10T04:52:30;99806.63;;;0.94;72.83
34235;BME280;20500;49.856;20.290;2022-10-10T04:55:36;99804.63;;;0.92;72.88
34235;BME280;20500;49.856;20.290;2022-10-10T04:58:43;99806.80;;;0.92;72.86
34235;BME280;20500;49.856;20.290;2022-10-10T05:01:49;99800.81;;;0.90;72.86
34235;BME280;20500;49.856;20.290;2022-10-10T05:04:55;99803.34;;;0.87;72.96
34235;BME280;20500;49.856;20.290;2022-10-10T05:08:01;99802.91;;;0.88;73.12
34235;BME280;20500;49.856;20.290;2022-10-10T05:11:07;99800.11;;;0.92;73.18
34235;BME280;20500;49.856;20.290;2022-10-10T05:14:11;99800.63;;;0.96;73.18
34235;BME280;20500;49.856;20.290;2022-10-10T05:17:18;99797.41;;;0.93;73.06
34235;BME280;20500;49.856;20.290;2022-10-10T05:20:22;99791.09;;;0.86;72.97
34235;BME280;20500;49.856;20.290;2022-10-10T05:23:29;99783.39;;;0.76;73.29
34235;BME280;20500;49.856;20.290;2022-10-10T05:26:35;99782.96;;;0.71;73.52
34235;BME280;20500;49.856;20.290;2022-10-10T05:29:46;99788.23;;;0.73;73.65
34235;BME280;20500;49.856;20.290;2022-10-10T05:32:53;99796.31;;;0.78;73.63
34235;BME280;20500;49.856;20.290;2022-10-10T05:36:08;99803.95;;;0.84;73.69
34235;BME280;20500;49.856;20.290;2022-10-10T05:39:15;99807.23;;;0.85;73.65
34235;BME280;20500;49.856;20.290;2022-10-10T05:42:22;99804.73;;;0.85;73.63
34235;BME280;20500;49.856;20.290;2022-10-10T05:45:26;99808.14;;;0.88;73.85
34235;BME280;20500;49.856;20.290;2022-10-10T05:48:32;99813.90;;;0.92;73.86
34235;BME280;20500;49.856;20.290;2022-10-10T05:51:39;99810.98;;;0.96;73.72
34235;BME280;20500;49.856;20.290;2022-10-10T05:54:45;99812.16;;;0.97;73.77
34235;BME280;20500;49.856;20.290;2022-10-10T05:57:51;99810.41;;;0.99;73.76
34235;BME280;20500;49.856;20.290;2022-10-10T06:01:02;99813.12;;;1.02;73.77
34235;BME280;20500;49.856;20.290;2022-10-10T06:04:09;99809.73;;;1.04;73.86
34235;BME280;20500;49.856;20.290;2022-10-10T06:07:15;99813.17;;;1.06;73.75
34235;BME280;20500;49.856;20.290;2022-10-10T06:10:21;99809.89;;;1.07;73.80
34235;BME280;20500;49.856;20.290;2022-10-10T06:13:28;99811.15;;;1.09;73.94
34235;BME280;20500;49.856;20.290;2022-10-10T06:16:34;99811.13;;;1.12;74.03
34235;BME280;20500;49.856;20.290;2022-10-10T06:19:43;99806.84;;;1.17;74.13
34235;BME280;20500;49.856;20.290;2022-10-10T06:22:49;99805.27;;;1.22;74.12
34235;BME280;20500;49.856;20.290;2022-10-10T06:25:56;99799.98;;;1.27;74.20
34235;BME280;20500;49.856;20.290;2022-10-10T06:29:02;99793.77;;;1.31;74.35
34235;BME280;20500;49.856;20.290;2022-10-10T06:32:08;99795.55;;;1.36;74.35
34235;BME280;20500;49.856;20.290;2022-10-10T06:35:15;99798.95;;;1.41;74.32
34235;BME280;20500;49.856;20.290;2022-10-10T06:38:21;99794.84;;;1.46;74.45
34235;BME280;20500;49.856;20.290;2022-10-10T06:41:27;99789.27;;;1.52;74.74
34235;BME280;20500;49.856;20.290;2022-10-10T06:44:33;99784.84;;;1.59;74.80
34235;BME280;20500;49.856;20.290;2022-10-10T06:47:38;99783.85;;;1.68;74.87
34235;BME280;20500;49.856;20.290;2022-10-10T06:50:56;99785.04;;;1.76;75.16
34235;BME280;20500;49.856;20.290;2022-10-10T06:54:02;99780.30;;;1.85;75.39
34235;BME280;20500;49.856;20.290;2022-10-10T06:57:09;99781.27;;;1.94;75.28
34235;BME280;20500;49.856;20.290;2022-10-10T07:00:16;99782.73;;;2.04;75.53
34235;BME280;20500;49.856;20.290;2022-10-10T07:03:24;99781.00;;;2.15;75.74
34235;BME280;20500;49.856;20.290;2022-10-10T07:06:31;99783.23;;;2.26;75.84
34235;BME280;20500;49.856;20.290;2022-10-10T07:09:38;99785.09;;;2.38;75.81
34235;BME280;20500;49.856;20.290;2022-10-10T07:12:44;99790.02;;;2.49;76.10
34235;BME280;20500;49.856;20.290;2022-10-10T07:15:50;99785.17;;;2.61;76.30
34235;BME280;20500;49.856;20.290;2022-10-10T07:18:57;99781.77;;;2.73;76.42
34235;BME280;20500;49.856;20.290;2022-10-10T07:22:03;99784.88;;;2.84;76.35
34235;BME280;20500;49.856;20.290;2022-10-10T07:25:09;99786.48;;;2.96;76.56
34235;BME280;20500;49.856;20.290;2022-10-10T07:28:16;99785.41;;;3.10;76.66
34235;BME280;20500;49.856;20.290;2022-10-10T07:31:23;99781.38;;;3.23;76.91
34235;BME280;20500;49.856;20.290;2022-10-10T07:34:29;99782.20;;;3.37;76.99
34235;BME280;20500;49.856;20.290;2022-10-10T07:37:35;99782.80;;;3.53;77.08
34235;BME280;20500;49.856;20.290;2022-10-10T07:40:41;99779.91;;;3.69;77.27
34235;BME280;20500;49.856;20.290;2022-10-10T07:43:48;99778.34;;;3.84;77.27
34235;BME280;20500;49.856;20.290;2022-10-10T07:46:58;99778.64;;;3.99;77.29
34235;BME280;20500;49.856;20.290;2022-10-10T07:50:05;99779.19;;;4.16;77.29
34235;BME280;20500;49.856;20.290;2022-10-10T07:53:12;99772.63;;;4.33;77.41
34235;BME280;20500;49.856;20.290;2022-10-10T07:56:17;99770.12;;;4.48;77.46
34235;BME280;20500;49.856;20.290;2022-10-10T07:59:23;99769.51;;;4.64;77.44
34235;BME280;20500;49.856;20.290;2022-10-10T08:02:30;99768.17;;;4.85;77.60
34235;BME280;20500;49.856;20.290;2022-10-10T08:05:39;99762.77;;;5.02;77.60
34235;BME280;20500;49.856;20.290;2022-10-10T08:08:48;99757.74;;;5.14;77.77
34235;BME280;20500;49.856;20.290;2022-10-10T08:11:56;99757.81;;;5.28;77.81
34235;BME280;20500;49.856;20.290;2022-10-10T08:15:02;99756.87;;;5.43;77.96
34235;BME280;20500;49.856;20.290;2022-10-10T08:18:08;99757.54;;;5.58;78.01
34235;BME280;20500;49.856;20.290;2022-10-10T08:21:16;99756.71;;;5.74;78.15
34235;BME280;20500;49.856;20.290;2022-10-10T08:24:22;99747.83;;;5.87;78.12
34235;BME280;20500;49.856;20.290;2022-10-10T08:27:29;99746.42;;;6.01;78.11
34235;BME280;20500;49.856;20.290;2022-10-10T08:30:37;99742.97;;;6.16;78.20
34235;BME280;20500;49.856;20.290;2022-10-10T08:33:45;99735.38;;;6.30;78.14
34235;BME280;20500;49.856;20.290;2022-10-10T08:36:52;99734.20;;;6.43;78.18
34235;BME280;20500;49.856;20.290;2022-10-10T08:39:58;99726.90;;;6.56;78.25
34235;BME280;20500;49.856;20.290;2022-10-10T08:43:07;99726.48;;;6.70;78.25
34235;BME280;20500;49.856;20.290;2022-10-10T08:46:20;99719.88;;;6.87;78.21
34235;BME280;20500;49.856;20.290;2022-10-10T08:49:33;99715.28;;;7.05;78.22
34235;BME280;20500;49.856;20.290;2022-10-10T08:52:42;99712.90;;;7.25;78.08
34235;BME280;20500;49.856;20.290;2022-10-10T08:55:52;99707.70;;;7.39;77.90
34235;BME280;20500;49.856;20.290;2022-10-10T08:59:02;99698.64;;;7.51;78.03
34235;BME280;20500;49.856;20.290;2022-10-10T09:02:29;99697.13;;;7.63;78.09
34235;BME280;20500;49.856;20.290;2022-10-10T09:06:04;99700.44;;;7.85;77.99
34235;BME280;20500;49.856;20.290;2022-10-10T09:09:20;99700.97;;;8.07;77.93
34235;BME280;20500;49.856;20.290;2022-10-10T09:12:36;99695.31;;;8.31;77.98
34235;BME280;20500;49.856;20.290;2022-10-10T09:15:53;99692.27;;;8.62;77.65
34235;BME280;20500;49.856;20.290;2022-10-10T09:19:08;99684.33;;;8.71;77.52
34235;BME280;20500;49.856;20.290;2022-10-10T09:22:24;99672.77;;;8.81;77.38
34235;BME280;20500;49.856;20.290;2022-10-10T09:25:34;99666.61;;;8.92;77.23
34235;BME280;20500;49.856;20.290;2022-10-10T09:28:45;99663.18;;;9.08;77.15
34235;BME280;20500;49.856;20.290;2022-10-10T09:31:56;99658.34;;;9.28;77.02
34235;BME280;20500;49.856;20.290;2022-10-10T09:35:14;99659.41;;;9.47;76.72
34235;BME280;20500;49.856;20.290;2022-10-10T09:38:29;99659.04;;;9.60;76.59
34235;BME280;20500;49.856;20.290;2022-10-10T09:41:41;99661.05;;;9.73;76.42
34235;BME280;20500;49.856;20.290;2022-10-10T09:44:49;99659.27;;;9.91;76.16
34235;BME280;20500;49.856;20.290;2022-10-10T09:47:56;99655.93;;;10.07;75.79
34235;BME280;20500;49.856;20.290;2022-10-10T09:51:04;99645.92;;;10.18;75.54
34235;BME280;20500;49.856;20.290;2022-10-10T09:54:11;99646.48;;;10.33;75.44
34235;BME280;20500;49.856;20.290;2022-10-10T09:57:20;99638.86;;;10.50;75.33
34235;BME280;20500;49.856;20.290;2022-10-10T10:00:34;99637.08;;;10.66;75.13
34235;BME280;20500;49.856;20.290;2022-10-10T10:03:41;99637.16;;;10.85;75.09
34235;BME280;20500;49.856;20.290;2022-10-10T10:06:49;99633.10;;;11.10;74.79
34235;BME280;20500;49.856;20.290;2022-10-10T10:09:57;99629.18;;;11.32;74.57
34235;BME280;20500;49.856;20.290;2022-10-10T10:13:13;99629.06;;;11.51;74.15
34235;BME280;20500;49.856;20.290;2022-10-10T10:16:30;99629.86;;;11.71;73.85
34235;BME280;20500;49.856;20.290;2022-10-10T10:19:38;99622.39;;;11.98;73.62
34235;BME280;20500;49.856;20.290;2022-10-10T10:22:47;99620.15;;;12.17;73.51
34235;BME280;20500;49.856;20.290;2022-10-10T10:26:03;99618.23;;;12.37;72.98
34235;BME280;20500;49.856;20.290;2022-10-10T10:29:27;99608.55;;;12.58;72.75
34235;BME280;20500;49.856;20.290;2022-10-10T10:32:43;99603.46;;;12.81;72.73
34235;BME280;20500;49.856;20.290;2022-10-10T10:35:57;99599.02;;;13.04;72.22
34235;BME280;20500;49.856;20.290;2022-10-10T10:39:22;99594.68;;;13.19;71.94
34235;BME280;20500;49.856;20.290;2022-10-10T10:42:42;99593.09;;;13.37;71.81
34235;BME280;20500;49.856;20.290;2022-10-10T10:46:02;99589.85;;;13.57;71.49
34235;BME280;20500;49.856;20.290;2022-10-10T10:49:20;99583.85;;;13.75;70.90
34235;BME280;20500;49.856;20.290;2022-10-10T10:52:39;99578.55;;;13.91;70.76
34235;BME280;20500;49.856;20.290;2022-10-10T10:55:57;99572.30;;;14.06;70.45
34235;BME280;20500;49.856;20.290;2022-10-10T10:59:19;99563.65;;;14.17;70.19
34235;BME280;20500;49.856;20.290;2022-10-10T11:02:59;99558.90;;;14.33;69.69
34235;BME280;20500;49.856;20.290;2022-10-10T11:06:49;99556.07;;;14.49;69.35
34235;BME280;20500;49.856;20.290;2022-10-10T11:10:21;99555.85;;;14.66;69.16
34235;BME280;20500;49.856;20.290;2022-10-10T11:13:37;99552.13;;;14.77;68.60
34235;BME280;20500;49.856;20.290;2022-10-10T11:16:47;99545.77;;;14.90;68.65
34235;BME280;20500;49.856;20.290;2022-10-10T11:19:59;99544.46;;;15.00;68.13
34235;BME280;20500;49.856;20.290;2022-10-10T11:23:09;99542.84;;;15.08;67.84
34235;BME280;20500;49.856;20.290;2022-10-10T11:26:21;99538.88;;;15.21;67.57
34235;BME280;20500;49.856;20.290;2022-10-10T11:29:30;99538.15;;;15.31;67.06
34235;BME280;20500;49.856;20.290;2022-10-10T11:32:42;99529.23;;;15.44;66.46
34235;BME280;20500;49.856;20.290;2022-10-10T11:35:54;99521.05;;;15.54;66.12
34235;BME280;20500;49.856;20.290;2022-10-10T11:39:09;99513.41;;;15.67;65.76
34235;BME280;20500;49.856;20.290;2022-10-10T11:42:21;99514.24;;;15.79;65.37
34235;BME280;20500;49.856;20.290;2022-10-10T11:45:33;99511.12;;;15.90;65.24
34235;BME280;20500;49.856;20.290;2022-10-10T11:48:45;99501.95;;;16.00;64.92
34235;BME280;20500;49.856;20.290;2022-10-10T11:52:14;99494.06;;;16.07;64.66
34235;BME280;20500;49.856;20.290;2022-10-10T11:55:42;99491.38;;;16.15;64.08
34235;BME280;20500;49.856;20.290;2022-10-10T11:58:52;99488.98;;;16.24;63.77
34235;BME280;20500;49.856;20.290;2022-10-10T12:02:02;99483.16;;;16.35;63.53
34235;BME280;20500;49.856;20.290;2022-10-10T12:05:22;99480.08;;;16.42;63.26
34235;BME280;20500;49.856;20.290;2022-10-10T12:08:34;99471.42;;;16.48;63.05
34235;BME280;20500;49.856;20.290;2022-10-10T12:11:44;99466.27;;;16.58;62.48
34235;BME280;20500;49.856;20.290;2022-10-10T12:14:54;99464.02;;;16.65;62.59
34235;BME280;20500;49.856;20.290;2022-10-10T12:18:04;99462.84;;;16.70;62.01
34235;BME280;20500;49.856;20.290;2022-10-10T12:21:13;99462.70;;;16.78;61.69
34235;BME280;20500;49.856;20.290;2022-10-10T12:24:20;99457.15;;;16.81;61.44
34235;BME280;20500;49.856;20.290;2022-10-10T12:27:43;99457.10;;;16.86;60.89
34235;BME280;20500;49.856;20.290;2022-10-10T12:31:24;99450.58;;;16.92;61.00
34235;BME280;20500;49.856;20.290;2022-10-10T12:34:43;99447.48;;;16.98;60.36
34235;BME280;20500;49.856;20.290;2022-10-10T12:38:16;99445.73;;;17.05;59.83
34235;BME280;20500;49.856;20.290;2022-10-10T12:41:23;99444.41;;;17.11;59.70
34235;BME280;20500;49.856;20.290;2022-10-10T12:44:51;99440.00;;;17.15;59.18
34235;BME280;20500;49.856;20.290;2022-10-10T12:47:58;99443.26;;;17.19;58.88
34235;BME280;20500;49.856;20.290;2022-10-10T12:51:19;99440.41;;;17.23;58.44
34235;BME280;20500;49.856;20.290;2022-10-10T12:54:30;99436.63;;;17.26;58.31
34235;BME280;20500;49.856;20.290;2022-10-10T12:57:41;99431.63;;;17.27;58.28
34235;BME280;20500;49.856;20.290;2022-10-10T13:00:49;99428.48;;;17.32;57.74
34235;BME280;20500;49.856;20.290;2022-10-10T13:03:56;99426.05;;;17.34;57.51
34235;BME280;20500;49.856;20.290;2022-10-10T13:07:04;99427.81;;;17.39;57.30
34235;BME280;20500;49.856;20.290;2022-10-10T13:10:21;99422.48;;;17.40;56.79
34235;BME280;20500;49.856;20.290;2022-10-10T13:13:27;99413.48;;;17.43;56.40
34235;BME280;20500;49.856;20.290;2022-10-10T13:16:43;99408.31;;;17.45;56.42
34235;BME280;20500;49.856;20.290;2022-10-10T13:19:50;99406.83;;;17.44;56.29
34235;BME280;20500;49.856;20.290;2022-10-10T13:22:57;99401.84;;;17.45;56.20
34235;BME280;20500;49.856;20.290;2022-10-10T13:26:14;99401.71;;;17.46;55.66
34235;BME280;20500;49.856;20.290;2022-10-10T13:29:27;99400.73;;;17.46;55.69
34235;BME280;20500;49.856;20.290;2022-10-10T13:32:35;99393.11;;;17.45;55.20
34235;BME280;20500;49.856;20.290;2022-10-10T13:35:43;99389.71;;;17.46;54.99
34235;BME280;20500;49.856;20.290;2022-10-10T13:38:50;99384.67;;;17.46;55.03
34235;BME280;20500;49.856;20.290;2022-10-10T13:41:56;99384.77;;;17.46;54.82
34235;BME280;20500;49.856;20.290;2022-10-10T13:45:28;99388.42;;;17.45;54.58
34235;BME280;20500;49.856;20.290;2022-10-10T13:48:41;99383.80;;;17.45;54.55
34235;BME280;20500;49.856;20.290;2022-10-10T13:51:48;99379.67;;;17.47;54.11
34235;BME280;20500;49.856;20.290;2022-10-10T13:55:19;99375.36;;;17.46;53.96
34235;BME280;20500;49.856;20.290;2022-10-10T13:58:28;99374.77;;;17.46;53.91
34235;BME280;20500;49.856;20.290;2022-10-10T14:01:37;99372.20;;;17.45;53.59
34235;BME280;20500;49.856;20.290;2022-10-10T14:04:49;99368.90;;;17.45;53.46
34235;BME280;20500;49.856;20.290;2022-10-10T14:07:58;99364.42;;;17.43;53.52
34235;BME280;20500;49.856;20.290;2022-10-10T14:11:07;99361.98;;;17.41;53.29
34235;BME280;20500;49.856;20.290;2022-10-10T14:14:19;99353.89;;;17.40;53.23
34235;BME280;20500;49.856;20.290;2022-10-10T14:17:27;99354.33;;;17.38;53.00
34235;BME280;20500;49.856;20.290;2022-10-10T14:20:34;99351.33;;;17.36;52.83
34235;BME280;20500;49.856;20.290;2022-10-10T14:23:40;99344.70;;;17.32;52.62
34235;BME280;20500;49.856;20.290;2022-10-10T14:26:46;99343.48;;;17.31;52.43
34235;BME280;20500;49.856;20.290;2022-10-10T14:29:54;99337.52;;;17.28;52.29
34235;BME280;20500;49.856;20.290;2022-10-10T14:33:04;99334.86;;;17.27;52.21
34235;BME280;20500;49.856;20.290;2022-10-10T14:36:12;99334.40;;;17.24;52.04
34235;BME280;20500;49.856;20.290;2022-10-10T14:39:19;99330.66;;;17.19;51.93
34235;BME280;20500;49.856;20.290;2022-10-10T14:42:26;99329.13;;;17.13;51.92
34235;BME280;20500;49.856;20.290;2022-10-10T14:45:32;99332.84;;;17.06;51.71
34235;BME280;20500;49.856;20.290;2022-10-10T14:48:39;99329.23;;;16.99;51.65
34235;BME280;20500;49.856;20.290;2022-10-10T14:51:45;99328.98;;;16.92;51.59
34235;BME280;20500;49.856;20.290;2022-10-10T14:54:51;99327.55;;;16.81;51.50
34235;BME280;20500;49.856;20.290;2022-10-10T14:57:57;99322.23;;;16.70;51.53
34235;BME280;20500;49.856;20.290;2022-10-10T15:01:04;99317.81;;;16.59;51.43
34235;BME280;20500;49.856;20.290;2022-10-10T15:04:10;99313.64;;;16.51;51.46
34235;BME280;20500;49.856;20.290;2022-10-10T15:07:16;99307.10;;;16.42;51.44
34235;BME280;20500;49.856;20.290;2022-10-10T15:10:23;99305.02;;;16.28;51.55
34235;BME280;20500;49.856;20.290;2022-10-10T15:13:38;99301.44;;;16.14;51.42
34235;BME280;20500;49.856;20.290;2022-10-10T15:16:45;99299.08;;;16.02;51.44
34235;BME280;20500;49.856;20.290;2022-10-10T15:19:49;99296.59;;;15.89;51.58
34235;BME280;20500;49.856;20.290;2022-10-10T15:22:55;99296.28;;;15.76;51.79
34235;BME280;20500;49.856;20.290;2022-10-10T15:26:02;99296.08;;;15.61;51.95
34235;BME280;20500;49.856;20.290;2022-10-10T15:29:08;99295.80;;;15.47;52.00
34235;BME280;20500;49.856;20.290;2022-10-10T15:32:14;99297.38;;;15.33;52.31
34235;BME280;20500;49.856;20.290;2022-10-10T15:35:22;99297.62;;;15.17;52.67
34235;BME280;20500;49.856;20.290;2022-10-10T15:38:29;99296.80;;;14.99;53.10
34235;BME280;20500;49.856;20.290;2022-10-10T15:41:38;99293.74;;;14.85;53.21
34235;BME280;20500;49.856;20.290;2022-10-10T15:44:46;99297.45;;;14.66;53.26
34235;BME280;20500;49.856;20.290;2022-10-10T15:47:52;99297.92;;;14.49;53.52
34235;BME280;20500;49.856;20.290;2022-10-10T15:50:58;99295.52;;;14.36;53.62
34235;BME280;20500;49.856;20.290;2022-10-10T15:54:05;99298.11;;;14.22;53.89
34235;BME280;20500;49.856;20.290;2022-10-10T15:57:13;99305.39;;;14.03;54.16
34235;BME280;20500;49.856;20.290;2022-10-10T16:00:22;99310.13;;;13.82;54.31
34235;BME280;20500;49.856;20.290;2022-10-10T16:03:29;99311.16;;;13.59;54.66
34235;BME280;20500;49.856;20.290;2022-10-10T16:06:36;99316.95;;;13.41;54.92
34235;BME280;20500;49.856;20.290;2022-10-10T16:09:40;99315.45;;;13.25;55.07
34235;BME280;20500;49.856;20.290;2022-10-10T16:12:46;99313.23;;;13.09;55.35
34235;BME280;20500;49.856;20.290;2022-10-10T16:15:58;99311.60;;;12.95;55.45
34235;BME280;20500;49.856;20.290;2022-10-10T16:19:06;99310.34;;;12.85;55.77
34235;BME280;20500;49.856;20.290;2022-10-10T16:22:11;99312.48;;;12.72;55.82
34235;BME280;20500;49.856;20.290;2022-10-10T16:25:17;99309.41;;;12.57;56.02
34235;BME280;20500;49.856;20.290;2022-10-10T16:28:26;99308.82;;;12.41;56.15
34235;BME280;20500;49.856;20.290;2022-10-10T16:31:33;99312.02;;;12.25;56.44
34235;BME280;20500;49.856;20.290;2022-10-10T16:34:40;99309.60;;;12.09;56.65
34235;BME280;20500;49.856;20.290;2022-10-10T16:37:44;99309.83;;;11.94;56.88